createdAt,value
2019-02-18T00:02:37.166Z,65.60
2019-02-18T00:07:40.940Z,58.23
2019-02-18T00:12:44.962Z,62.40
2019-02-18T00:17:48.651Z,63.47
2019-02-18T00:22:52.332Z,63.10
2019-02-18T00:27:56.045Z,63.47
2019-02-18T00:32:59.744Z,73.40
2019-02-18T00:38:03.453Z,66.63
2019-02-18T00:43:07.170Z,65.17
2019-02-18T00:48:10.857Z,69.63
2019-02-18T00:53:15.033Z,66.67
2019-02-18T00:58:19.279Z,74.93
2019-02-18T01:03:23.105Z,64.00
2019-02-18T01:08:26.867Z,65.20
2019-02-18T01:13:30.559Z,61.23
2019-02-18T01:18:34.376Z,70.53
2019-02-18T01:23:38.615Z,65.20
2019-02-18T01:28:42.341Z,68.43
2019-02-18T01:33:46.077Z,62.23
2019-02-18T01:38:50.084Z,71.70
2019-02-18T01:43:53.865Z,70.50
2019-02-18T01:48:57.807Z,65.77
2019-02-18T01:54:01.525Z,66.97
2019-02-18T01:59:05.351Z,66.10
2019-02-18T02:04:09.110Z,68.33
2019-02-18T02:09:15.116Z,68.83
2019-02-18T02:14:18.908Z,71.67
2019-02-18T02:19:22.880Z,73.03
2019-02-18T02:24:26.627Z,70.80
2019-02-18T02:29:30.834Z,72.57
2019-02-18T02:34:37.679Z,69.67
2019-02-18T02:39:41.477Z,72.73
2019-02-18T02:44:45.480Z,74.67
2019-02-18T02:49:49.234Z,74.50
2019-02-18T02:54:52.922Z,74.40
2019-02-18T02:59:56.889Z,74.57
2019-02-18T03:05:00.627Z,75.80
2019-02-18T03:10:04.532Z,70.20
2019-02-18T03:15:08.306Z,86.07
2019-02-18T03:20:12.298Z,76.10
2019-02-18T03:25:20.836Z,77.27
2019-02-18T03:30:39.478Z,79.50
2019-02-18T03:35:47.911Z,86.50
2019-02-18T03:41:02.444Z,83.73
2019-02-18T03:45:57.072Z,78.63
2019-02-18T03:51:00.782Z,86.03
2019-02-18T03:56:04.918Z,82.83
2019-02-18T04:01:08.691Z,86.90
2019-02-18T04:06:12.424Z,85.63
2019-02-18T04:11:16.130Z,90.33
2019-02-18T04:16:19.804Z,87.27
2019-02-18T04:21:23.552Z,87.40
2019-02-18T04:26:27.257Z,80.43
2019-02-18T04:31:31.479Z,89.90
2019-02-18T04:36:35.194Z,88.00
2019-02-18T04:41:38.869Z,91.17
2019-02-18T04:46:42.566Z,84.17
2019-02-18T04:51:46.250Z,91.33
2019-02-18T04:56:49.963Z,94.40
2019-02-18T05:01:53.724Z,84.53
2019-02-18T05:06:57.411Z,89.93
2019-02-18T05:12:01.132Z,83.43
2019-02-18T05:17:05.223Z,92.47
2019-02-18T05:22:08.956Z,93.50
2019-02-18T05:27:12.662Z,88.37
2019-02-18T05:32:16.347Z,100.37
2019-02-18T05:37:20.042Z,96.87
2019-02-18T05:42:23.757Z,88.53
2019-02-18T05:47:27.486Z,88.73
2019-02-18T05:52:31.201Z,90.67
2019-02-18T05:57:34.882Z,89.00
2019-02-18T06:02:38.661Z,88.57
2019-02-18T06:07:42.654Z,93.60
2019-02-18T06:12:46.416Z,103.10
2019-02-18T06:17:50.102Z,95.87
2019-02-18T06:22:53.837Z,94.53
2019-02-18T06:27:57.749Z,98.43
2019-02-18T06:33:01.477Z,98.27
2019-02-18T06:38:05.217Z,100.10
2019-02-18T06:43:08.879Z,95.47
2019-02-18T06:48:25.446Z,96.53
2019-02-18T06:53:29.129Z,87.33
2019-02-18T06:58:43.652Z,89.50
2019-02-18T07:03:56.637Z,88.13
2019-02-18T07:09:07.607Z,96.63
2019-02-18T07:14:11.804Z,91.57
2019-02-18T07:19:15.498Z,89.70
2019-02-18T07:24:19.191Z,89.60
2019-02-18T07:29:23.147Z,91.07
2019-02-18T07:34:26.826Z,86.77
2019-02-18T07:39:30.612Z,80.07
2019-02-18T07:44:34.361Z,85.23
2019-02-18T07:49:38.286Z,76.17
2019-02-18T07:54:42.238Z,71.53
2019-02-18T07:59:45.913Z,72.17
2019-02-18T08:04:49.638Z,73.67
2019-02-18T08:09:53.315Z,68.77
2019-02-18T08:14:57.042Z,72.27
2019-02-18T08:20:00.980Z,72.63
2019-02-18T08:25:05.145Z,66.30
2019-02-18T08:30:10.382Z,70.63
2019-02-18T08:35:14.116Z,68.27
2019-02-18T08:40:22.477Z,63.17
2019-02-18T08:45:23.279Z,68.97
2019-02-18T08:50:26.982Z,70.70
2019-02-18T08:55:30.669Z,65.63
2019-02-18T09:00:34.521Z,64.80
2019-02-18T09:05:38.612Z,64.77
2019-02-18T09:10:42.664Z,61.93
2019-02-18T09:15:46.380Z,68.83
2019-02-18T09:20:50.511Z,66.77
2019-02-18T09:25:58.003Z,61.73
2019-02-18T09:31:03.008Z,58.13
2019-02-18T09:36:06.787Z,58.47
2019-02-18T09:41:10.505Z,57.65
2019-02-18T09:46:14.232Z,52.23
2019-02-18T09:51:18.018Z,59.70
2019-02-18T09:56:22.238Z,56.10
2019-02-18T10:01:26.335Z,57.17
2019-02-18T10:06:30.209Z,51.70
2019-02-18T10:11:33.966Z,54.85
2019-02-18T10:16:37.684Z,48.38
2019-02-18T10:21:41.708Z,52.43
2019-02-18T10:26:45.430Z,49.40
2019-02-18T10:31:49.152Z,49.33
2019-02-18T10:36:53.538Z,47.23
2019-02-18T10:41:57.233Z,46.20
2019-02-18T10:47:00.986Z,53.17
2019-02-18T10:52:04.952Z,49.45
2019-02-18T10:57:08.773Z,46.15
2019-02-18T11:02:12.562Z,47.67
2019-02-18T11:07:16.324Z,50.95
2019-02-18T11:12:20.035Z,48.00
2019-02-18T11:17:23.757Z,48.87
2019-02-18T11:22:27.486Z,41.28
2019-02-18T11:27:31.489Z,51.08
2019-02-18T11:32:35.187Z,44.58
2019-02-18T11:37:39.443Z,46.55
2019-02-18T11:42:43.283Z,47.30
2019-02-18T11:47:47.405Z,42.17
2019-02-18T11:52:51.699Z,49.35
2019-02-18T11:57:55.672Z,51.48
2019-02-18T12:03:03.175Z,51.10
2019-02-18T12:08:05.098Z,45.28
2019-02-18T12:13:08.820Z,45.45
2019-02-18T12:18:13.869Z,48.17
2019-02-18T12:23:17.754Z,48.35
2019-02-18T12:28:21.495Z,44.65
2019-02-18T12:33:25.268Z,40.63
2019-02-18T12:38:29.241Z,43.17
2019-02-18T12:43:33.261Z,41.85
2019-02-18T12:48:37.463Z,45.67
2019-02-18T12:53:41.313Z,42.83
2019-02-18T12:58:54.297Z,43.33
2019-02-18T13:03:50.831Z,42.40
2019-02-18T13:08:54.680Z,45.80
2019-02-18T13:13:58.532Z,47.03
2019-02-18T13:19:02.690Z,46.73
2019-02-18T13:24:06.537Z,46.42
2019-02-18T13:29:10.643Z,43.35
2019-02-18T13:34:14.756Z,43.08
2019-02-18T13:39:18.903Z,41.77
2019-02-18T13:44:22.662Z,47.67
2019-02-18T13:49:26.777Z,44.15
2019-02-18T13:54:30.963Z,41.67
2019-02-18T13:59:34.723Z,41.40
2019-02-18T14:04:38.598Z,39.48
2019-02-18T14:09:42.462Z,36.05
2019-02-18T14:14:46.292Z,39.37
2019-02-18T14:19:50.282Z,37.75
2019-02-18T14:24:54.133Z,40.70
2019-02-18T14:29:57.851Z,34.27
2019-02-18T14:35:01.671Z,36.83
2019-02-18T14:40:06.136Z,36.40
2019-02-18T14:45:10.445Z,37.77
2019-02-18T14:50:17.096Z,37.10
2019-02-18T14:55:21.510Z,36.40
2019-02-18T15:00:25.316Z,41.30
2019-02-18T15:05:29.111Z,36.20
2019-02-18T15:10:33.246Z,36.30
2019-02-18T15:15:37.129Z,38.67
2019-02-18T15:20:41.226Z,34.93
2019-02-18T15:25:44.965Z,35.20
2019-02-18T15:30:48.657Z,35.53
2019-02-18T15:35:52.650Z,34.43
2019-02-18T15:40:56.738Z,30.23
2019-02-18T15:46:00.456Z,34.43
2019-02-18T15:51:04.322Z,35.37
2019-02-18T15:56:08.009Z,34.83
2019-02-18T16:01:11.919Z,29.77
2019-02-18T16:06:15.888Z,29.53
2019-02-18T16:11:19.617Z,34.70
2019-02-18T16:16:23.329Z,32.33
2019-02-18T16:21:27.284Z,31.07
2019-02-18T16:26:31.036Z,38.00
2019-02-18T16:31:35.046Z,34.13
2019-02-18T16:36:39.114Z,34.37
2019-02-18T16:41:43.298Z,38.47
2019-02-18T16:46:47.058Z,34.70
2019-02-18T16:51:51.123Z,38.10
2019-02-18T16:56:55.141Z,35.23
2019-02-18T17:01:58.818Z,38.13
2019-02-18T17:07:02.518Z,41.70
2019-02-18T17:12:06.270Z,36.43
2019-02-18T17:17:09.984Z,35.80
2019-02-18T17:22:13.723Z,37.57
2019-02-18T17:27:22.146Z,44.73
2019-02-18T17:32:25.911Z,42.97
2019-02-18T17:37:29.973Z,41.33
2019-02-18T17:42:33.805Z,38.00
2019-02-18T17:47:37.947Z,38.23
2019-02-18T17:52:41.797Z,36.87
2019-02-18T17:57:45.811Z,37.60
2019-02-18T18:02:49.491Z,40.70
2019-02-18T18:07:53.322Z,37.07
2019-02-18T18:12:57.642Z,41.23
2019-02-18T18:18:01.642Z,43.50
2019-02-18T18:23:05.421Z,40.33
2019-02-18T18:28:09.931Z,45.83
2019-02-18T18:33:13.679Z,43.40
2019-02-18T18:38:17.387Z,43.20
2019-02-18T18:43:21.092Z,45.30
2019-02-18T18:48:24.772Z,48.30
2019-02-18T18:53:28.472Z,47.40
2019-02-18T18:58:32.159Z,49.37
2019-02-18T19:03:35.865Z,49.90
2019-02-18T19:08:39.765Z,45.67
2019-02-18T19:13:43.533Z,53.40
2019-02-18T19:18:47.225Z,46.23
2019-02-18T19:23:50.887Z,46.13
2019-02-18T19:28:54.871Z,51.77
2019-02-18T19:33:58.589Z,51.93
2019-02-18T19:39:03.533Z,54.87
2019-02-18T19:44:07.401Z,51.57
2019-02-18T19:49:11.274Z,54.63
2019-02-18T19:54:14.944Z,54.33
2019-02-18T19:59:18.838Z,51.07
2019-02-18T20:04:22.677Z,48.83
2019-02-18T20:09:26.413Z,54.63
2019-02-18T20:14:30.192Z,53.13
2019-02-18T20:19:33.955Z,54.07
2019-02-18T20:24:38.323Z,52.33
2019-02-18T20:29:42.038Z,53.37
2019-02-18T20:34:45.761Z,50.37
2019-02-18T20:39:49.552Z,49.67
2019-02-18T20:44:53.220Z,54.53
2019-02-18T20:49:57.161Z,50.30
2019-02-18T20:55:01.281Z,50.37
2019-02-18T21:00:07.859Z,50.47
2019-02-18T21:05:11.561Z,55.50
2019-02-18T21:10:15.807Z,49.73
2019-02-18T21:15:19.925Z,52.83
2019-02-18T21:20:23.633Z,52.07
2019-02-18T21:25:27.394Z,50.00
2019-02-18T21:30:31.234Z,54.93
2019-02-18T21:35:35.309Z,56.63
2019-02-18T21:40:39.281Z,51.87
2019-02-18T21:45:43.175Z,53.73
2019-02-18T21:50:46.872Z,55.40
2019-02-18T21:55:50.628Z,58.70
2019-02-18T22:00:54.333Z,56.80
2019-02-18T22:05:58.074Z,56.27
2019-02-18T22:11:02.048Z,53.53
2019-02-18T22:16:05.809Z,53.97
2019-02-18T22:21:09.808Z,55.17
2019-02-18T22:26:13.659Z,52.53
2019-02-18T22:31:17.352Z,51.43
2019-02-18T22:36:21.417Z,47.90
2019-02-18T22:41:25.400Z,49.33
2019-02-18T22:46:29.116Z,49.77
2019-02-18T22:51:32.897Z,47.97
2019-02-18T22:56:36.621Z,49.33
2019-02-18T23:01:42.465Z,49.37
2019-02-18T23:06:46.140Z,48.60
2019-02-18T23:11:49.867Z,52.50
2019-02-18T23:16:53.552Z,53.93
2019-02-18T23:21:57.409Z,46.87
2019-02-18T23:27:01.146Z,55.37
2019-02-18T23:32:05.186Z,57.50
2019-02-18T23:37:09.206Z,58.07
2019-02-18T23:42:13.029Z,52.73
2019-02-18T23:47:16.777Z,52.83
2019-02-18T23:52:20.737Z,53.10
2019-02-18T23:57:24.456Z,57.33
